Time,TemperatureF,DewpointF,PressureIn,WindDirection,WindDirectionDegrees,WindSpeedMPH,WindSpeedGustMPH,Humidity,HourlyPrecipIn,Conditions,Clouds,dailyrainin,SoftwareType,DateUTC
2013-09-11 00:03:00,69.0,68.0,-100.00,WSW,245,1.0,4.0,96,-99.99,,,-99.99,,2013-09-11 05:03:00,
2013-09-11 00:10:00,68.0,67.0,-100.00,WSW,245,2.0,6.0,96,-99.99,,,-99.99,,2013-09-11 05:10:00,
2013-09-11 00:43:00,68.0,67.0,-100.00,WSW,245,2.0,6.0,96,-99.99,,,-99.99,,2013-09-11 05:43:00,
2013-09-11 00:53:00,68.0,67.0,-100.00,WSW,245,2.0,6.0,96,-99.99,,,-99.99,,2013-09-11 05:53:00,
2013-09-11 01:02:00,68.0,67.0,-100.00,WSW,245,2.0,6.0,96,-99.99,,,-99.99,,2013-09-11 06:02:00,
2013-09-11 01:10:00,67.0,65.0,-100.00,WSW,245,0.0,4.0,95,-99.99,,,-99.99,,2013-09-11 06:10:00,
2013-09-11 01:42:00,67.0,65.0,-100.00,WSW,245,0.0,4.0,95,-99.99,,,-99.99,,2013-09-11 06:42:00,
2013-09-11 01:52:00,67.0,65.0,-100.00,WSW,245,0.0,4.0,95,-99.99,,,-99.99,,2013-09-11 06:52:00,
2013-09-11 02:01:00,67.0,65.0,-100.00,WSW,245,0.0,4.0,95,-99.99,,,-99.99,,2013-09-11 07:01:00,
2013-09-11 02:42:00,66.0,65.0,-100.00,SSW,195,1.0,2.0,96,-99.99,,,-99.99,,2013-09-11 07:42:00,
2013-09-11 02:53:00,66.0,65.0,-100.00,SSW,195,1.0,2.0,96,-99.99,,,-99.99,,2013-09-11 07:53:00,
2013-09-11 03:02:00,66.0,65.0,-100.00,SSW,195,1.0,2.0,96,-99.99,,,-99.99,,2013-09-11 08:02:00,
2013-09-11 03:10:00,65.0,64.0,-100.00,WSW,245,1.0,4.0,96,-99.99,,,-99.99,,2013-09-11 08:10:00,
2013-09-11 03:42:00,65.0,64.0,-100.00,WSW,245,1.0,4.0,96,-99.99,,,-99.99,,2013-09-11 08:42:00,
2013-09-11 03:52:00,65.0,64.0,-100.00,WSW,245,1.0,4.0,96,-99.99,,,-99.99,,2013-09-11 08:52:00,
2013-09-11 04:02:00,65.0,64.0,-100.00,WSW,245,1.0,4.0,96,-99.99,,,-99.99,,2013-09-11 09:02:00,
2013-09-11 04:12:00,65.0,64.0,-100.00,SW,220,1.0,4.0,96,-99.99,,,-99.99,,2013-09-11 09:12:00,
2013-09-11 04:43:00,65.0,64.0,-100.00,SW,220,1.0,4.0,96,-99.99,,,-99.99,,2013-09-11 09:43:00,
2013-09-11 04:53:00,65.0,64.0,-100.00,SW,220,1.0,4.0,96,-99.99,,,-99.99,,2013-09-11 09:53:00,
2013-09-11 05:03:00,65.0,64.0,-100.00,SW,220,1.0,4.0,96,-99.99,,,-99.99,,2013-09-11 10:03:00,
2013-09-11 05:10:00,64.0,63.0,-100.00,West,280,1.0,3.0,96,-99.99,,,-99.99,,2013-09-11 10:10:00,
2013-09-11 05:43:00,64.0,63.0,-100.00,West,280,1.0,3.0,96,-99.99,,,-99.99,,2013-09-11 10:43:00,
2013-09-11 05:53:00,64.0,63.0,-100.00,West,280,1.0,3.0,96,-99.99,,,-99.99,,2013-09-11 10:53:00,
2013-09-11 06:03:00,64.0,63.0,-100.00,West,280,1.0,3.0,96,-99.99,,,-99.99,,2013-09-11 11:03:00,
2013-09-11 06:10:00,64.0,62.0,-100.00,SSW,210,2.0,4.0,96,-99.99,,,-99.99,,2013-09-11 11:10:00,
2013-09-11 06:42:00,64.0,62.0,-100.00,SSW,210,2.0,4.0,96,-99.99,,,-99.99,,2013-09-11 11:42:00,
2013-09-11 06:52:00,64.0,62.0,-100.00,SSW,210,2.0,4.0,96,-99.99,,,-99.99,,2013-09-11 11:52:00,
2013-09-11 07:01:00,64.0,62.0,-100.00,SSW,210,2.0,4.0,96,-99.99,,,-99.99,,2013-09-11 12:01:00,
2013-09-11 07:10:00,63.0,62.0,-100.00,SSW,205,1.0,2.0,96,-99.99,,,-99.99,,2013-09-11 12:10:00,
2013-09-11 07:42:00,63.0,62.0,-100.00,SSW,205,1.0,2.0,96,-99.99,,,-99.99,,2013-09-11 12:42:00,
2013-09-11 07:52:00,63.0,62.0,-100.00,SSW,205,1.0,2.0,96,-99.99,,,-99.99,,2013-09-11 12:52:00,
2013-09-11 08:02:00,63.0,62.0,-100.00,SSW,205,1.0,2.0,96,-99.99,,,-99.99,,2013-09-11 13:02:00,
2013-09-11 08:42:00,64.0,63.0,-100.00,West,280,1.0,6.0,96,-99.99,,,-99.99,,2013-09-11 13:42:00,
2013-09-11 08:52:00,64.0,63.0,-100.00,West,280,1.0,6.0,96,-99.99,,,-99.99,,2013-09-11 13:52:00,
2013-09-11 09:02:00,64.0,63.0,-100.00,West,280,1.0,6.0,96,-99.99,,,-99.99,,2013-09-11 14:02:00,
2013-09-11 09:42:00,68.0,65.0,-100.00,West,270,4.0,6.0,91,-99.99,,,-99.99,,2013-09-11 14:42:00,
2013-09-11 09:52:00,68.0,65.0,-100.00,West,270,4.0,6.0,91,-99.99,,,-99.99,,2013-09-11 14:52:00,
2013-09-11 10:02:00,68.0,65.0,-100.00,West,270,4.0,6.0,91,-99.99,,,-99.99,,2013-09-11 15:02:00,
2013-09-11 10:43:00,69.0,63.0,-100.00,West,280,4.0,7.0,82,-99.99,,,-99.99,,2013-09-11 15:43:00,
2013-09-11 10:54:00,69.0,63.0,-100.00,West,280,4.0,7.0,82,-99.99,,,-99.99,,2013-09-11 15:54:00,
2013-09-11 11:03:00,69.0,63.0,-100.00,West,280,4.0,7.0,82,-99.99,,,-99.99,,2013-09-11 16:03:00,
2013-09-11 11:11:00,73.0,62.0,-100.00,SSW,205,5.0,8.0,68,-99.99,,,-99.99,,2013-09-11 16:11:00,
2013-09-11 11:43:00,73.0,62.0,-100.00,SSW,205,5.0,8.0,68,-99.99,,,-99.99,,2013-09-11 16:43:00,
2013-09-11 11:53:00,73.0,62.0,-100.00,SSW,205,5.0,8.0,68,-99.99,,,-99.99,,2013-09-11 16:53:00,
2013-09-11 12:03:00,73.0,62.0,-100.00,SSW,205,5.0,8.0,68,-99.99,,,-99.99,,2013-09-11 17:03:00,
2013-09-11 12:43:00,79.0,59.0,-100.00,WSW,250,6.0,13.0,52,-99.99,,,-99.99,,2013-09-11 17:43:00,
2013-09-11 12:52:00,79.0,59.0,-100.00,WSW,250,6.0,13.0,52,-99.99,,,-99.99,,2013-09-11 17:52:00,
2013-09-11 13:02:00,79.0,59.0,-100.00,WSW,250,6.0,13.0,52,-99.99,,,-99.99,,2013-09-11 18:02:00,
2013-09-11 13:12:00,79.0,59.0,-100.00,WSW,250,6.0,13.0,52,-99.99,,,-99.99,,2013-09-11 18:12:00,
2013-09-11 14:11:00,85.0,51.0,-100.00,SW,230,7.0,21.0,30,-99.99,,,-99.99,,2013-09-11 19:11:00,
2013-09-11 14:42:00,85.0,51.0,-100.00,SW,230,7.0,21.0,30,-99.99,,,-99.99,,2013-09-11 19:42:00,
2013-09-11 14:53:00,85.0,51.0,-100.00,SW,230,7.0,21.0,30,-99.99,,,-99.99,,2013-09-11 19:53:00,
2013-09-11 15:02:00,85.0,51.0,-100.00,SW,230,7.0,21.0,30,-99.99,,,-99.99,,2013-09-11 20:02:00,
2013-09-11 15:10:00,84.0,50.0,-100.00,WSW,250,9.0,17.0,31,-99.99,,,-99.99,,2013-09-11 20:10:00,
2013-09-11 15:42:00,84.0,50.0,-100.00,WSW,250,9.0,17.0,31,-99.99,,,-99.99,,2013-09-11 20:42:00,
2013-09-11 15:52:00,84.0,50.0,-100.00,WSW,250,9.0,17.0,31,-99.99,,,-99.99,,2013-09-11 20:52:00,
2013-09-11 16:02:00,84.0,50.0,-100.00,WSW,250,9.0,17.0,31,-99.99,,,-99.99,,2013-09-11 21:02:00,
2013-09-11 16:44:00,84.0,51.0,-100.00,SW,230,9.0,20.0,31,-99.99,,,-99.99,,2013-09-11 21:44:00,
2013-09-11 16:54:00,84.0,51.0,-100.00,SW,230,9.0,20.0,31,-99.99,,,-99.99,,2013-09-11 21:54:00,
2013-09-11 17:04:00,84.0,51.0,-100.00,SW,230,9.0,20.0,31,-99.99,,,-99.99,,2013-09-11 22:04:00,
2013-09-11 17:43:00,82.0,50.0,-100.00,West,275,7.0,12.0,33,-99.99,,,-99.99,,2013-09-11 22:43:00,
2013-09-11 17:54:00,82.0,50.0,-100.00,West,275,7.0,12.0,33,-99.99,,,-99.99,,2013-09-11 22:54:00,
2013-09-11 18:03:00,82.0,50.0,-100.00,West,275,7.0,12.0,33,-99.99,,,-99.99,,2013-09-11 23:03:00,
2013-09-11 18:42:00,82.0,54.0,-100.00,WSW,245,6.0,15.0,38,-99.99,,,-99.99,,2013-09-11 23:42:00,
2013-09-11 18:53:00,82.0,54.0,-100.00,WSW,245,6.0,15.0,38,-99.99,,,-99.99,,2013-09-11 23:53:00,
2013-09-11 19:01:00,82.0,54.0,-100.00,WSW,245,6.0,15.0,38,-99.99,,,-99.99,,2013-09-12 00:01:00,
2013-09-11 19:42:00,77.0,52.0,-100.00,NW,310,6.0,16.0,41,-99.99,,,-99.99,,2013-09-12 00:42:00,
2013-09-11 19:52:00,77.0,52.0,-100.00,NW,310,6.0,16.0,41,-99.99,,,-99.99,,2013-09-12 00:52:00,
2013-09-11 20:01:00,77.0,52.0,-100.00,NW,310,6.0,16.0,41,-99.99,,,-99.99,,2013-09-12 01:01:00,
2013-09-11 20:10:00,74.0,50.0,-100.00,NW,310,5.0,9.0,44,-99.99,,,-99.99,,2013-09-12 01:10:00,
2013-09-11 20:42:00,74.0,50.0,-100.00,NW,310,5.0,9.0,44,-99.99,,,-99.99,,2013-09-12 01:42:00,
2013-09-11 20:52:00,74.0,50.0,-100.00,NW,310,5.0,9.0,44,-99.99,,,-99.99,,2013-09-12 01:52:00,
2013-09-11 21:03:00,74.0,50.0,-100.00,NW,310,5.0,9.0,44,-99.99,,,-99.99,,2013-09-12 02:03:00,
2013-09-11 21:11:00,71.0,49.0,-100.00,North,0,2.0,7.0,47,-99.99,,,-99.99,,2013-09-12 02:11:00,
2013-09-11 21:52:00,71.0,49.0,-100.00,North,0,2.0,7.0,47,-99.99,,,-99.99,,2013-09-12 02:52:00,
2013-09-11 22:02:00,71.0,49.0,-100.00,North,0,2.0,7.0,47,-99.99,,,-99.99,,2013-09-12 03:02:00,
2013-09-11 22:11:00,61.0,52.0,-100.00,West,265,2.0,3.0,72,-99.99,,,-99.99,,2013-09-12 03:11:00,
2013-09-11 23:11:00,57.0,54.0,-100.00,West,260,0.0,0.0,91,-99.99,,,-99.99,,2013-09-12 04:11:00,